sensor_id;sensor_type;location;lat;lon;timestamp;pressure;altitude;pressure_sealevel;temperature;humidity
29417;BME280;28421;51.030;4.006;2023-07-24T00:00:11;100452.84;;;18.34;100.00
29417;BME280;28421;51.030;4.006;2023-07-24T00:02:37;100439.66;;;18.20;100.00
29417;BME280;28421;51.030;4.006;2023-07-24T00:05:03;100418.72;;;18.08;100.00
29417;BME280;28421;51.030;4.006;2023-07-24T00:07:28;100483.88;;;18.45;100.00
29417;BME280;28421;51.030;4.006;2023-07-24T00:09:54;100439.91;;;18.18;100.00
29417;BME280;28421;51.030;4.006;2023-07-24T00:12:21;100442.78;;;18.35;100.00
29417;BME280;28421;51.030;4.006;2023-07-24T00:14:46;100441.69;;;18.24;100.00
29417;BME280;28421;51.030;4.006;2023-07-24T00:17:12;100441.81;;;18.18;100.00
29417;BME280;28421;51.030;4.006;2023-07-24T00:19:37;100415.00;;;18.03;100.00
29417;BME280;28421;51.030;4.006;2023-07-24T00:22:03;100395.28;;;18.07;100.00
29417;BME280;28421;51.030;4.006;2023-07-24T00:24:29;100391.84;;;18.12;100.00
29417;BME280;28421;51.030;4.006;2023-07-24T00:26:55;100369.47;;;17.98;100.00
29417;BME280;28421;51.030;4.006;2023-07-24T00:29:20;100358.59;;;17.98;100.00
29417;BME280;28421;51.030;4.006;2023-07-24T00:31:46;100390.22;;;18.23;100.00
29417;BME280;28421;51.030;4.006;2023-07-24T00:34:11;100350.53;;;17.92;100.00
29417;BME280;28421;51.030;4.006;2023-07-24T00:36:39;100382.16;;;18.04;100.00
29417;BME280;28421;51.030;4.006;2023-07-24T00:39:05;100413.31;;;18.32;100.00
29417;BME280;28421;51.030;4.006;2023-07-24T00:41:31;100409.19;;;18.41;100.00
29417;BME280;28421;51.030;4.006;2023-07-24T00:43:56;100415.00;;;18.45;100.00
29417;BME280;28421;51.030;4.006;2023-07-24T00:46:22;100356.47;;;18.12;100.00
29417;BME280;28421;51.030;4.006;2023-07-24T00:48:48;100427.31;;;18.47;100.00
29417;BME280;28421;51.030;4.006;2023-07-24T00:51:14;100399.00;;;18.36;100.00
29417;BME280;28421;51.030;4.006;2023-07-24T00:53:39;100383.00;;;18.28;100.00
29417;BME280;28421;51.030;4.006;2023-07-24T00:56:06;100422.81;;;18.53;100.00
29417;BME280;28421;51.030;4.006;2023-07-24T00:58:33;100352.22;;;18.04;100.00
29417;BME280;28421;51.030;4.006;2023-07-24T01:01:01;100422.00;;;18.52;100.00
29417;BME280;28421;51.030;4.006;2023-07-24T01:03:33;100362.09;;;18.29;100.00
29417;BME280;28421;51.030;4.006;2023-07-24T01:06:01;100377.22;;;18.25;100.00
29417;BME280;28421;51.030;4.006;2023-07-24T01:08:27;100383.00;;;18.28;100.00
29417;BME280;28421;51.030;4.006;2023-07-24T01:11:03;100422.22;;;18.51;100.00
29417;BME280;28421;51.030;4.006;2023-07-24T01:13:36;100410.25;;;18.40;100.00
29417;BME280;28421;51.030;4.006;2023-07-24T01:16:09;100390.50;;;17.91;100.00
29417;BME280;28421;51.030;4.006;2023-07-24T01:18:39;100377.50;;;17.93;100.00
29417;BME280;28421;51.030;4.006;2023-07-24T01:21:06;100391.84;;;18.00;100.00
29417;BME280;28421;51.030;4.006;2023-07-24T01:24:07;100379.16;;;17.94;100.00
29417;BME280;28421;51.030;4.006;2023-07-24T01:26:40;100382.81;;;18.00;100.00
29417;BME280;28421;51.030;4.006;2023-07-24T01:29:05;100395.59;;;17.99;100.00
29417;BME280;28421;51.030;4.006;2023-07-24T01:31:31;100416.13;;;18.13;100.00
29417;BME280;28421;51.030;4.006;2023-07-24T01:33:56;100355.13;;;17.79;100.00
29417;BME280;28421;51.030;4.006;2023-07-24T01:36:22;100384.91;;;17.86;100.00
29417;BME280;28421;51.030;4.006;2023-07-24T01:38:49;100387.63;;;17.86;100.00
29417;BME280;28421;51.030;4.006;2023-07-24T01:41:16;100376.09;;;17.72;100.00
29417;BME280;28421;51.030;4.006;2023-07-24T01:43:43;100357.28;;;17.71;100.00
29417;BME280;28421;51.030;4.006;2023-07-24T01:46:09;100371.06;;;17.76;100.00
29417;BME280;28421;51.030;4.006;2023-07-24T01:48:35;100335.31;;;17.42;100.00
29417;BME280;28421;51.030;4.006;2023-07-24T01:51:00;100353.28;;;17.43;100.00
29417;BME280;28421;51.030;4.006;2023-07-24T01:53:28;100324.88;;;17.09;100.00
29417;BME280;28421;51.030;4.006;2023-07-24T01:55:53;100359.94;;;17.29;100.00
29417;BME280;28421;51.030;4.006;2023-07-24T01:58:19;100395.00;;;17.49;100.00
29417;BME280;28421;51.030;4.006;2023-07-24T02:00:44;100361.81;;;17.28;100.00
29417;BME280;28421;51.030;4.006;2023-07-24T02:03:10;100353.22;;;17.31;100.00
29417;BME280;28421;51.030;4.006;2023-07-24T02:05:36;100325.41;;;17.18;100.00
29417;BME280;28421;51.030;4.006;2023-07-24T02:08:01;100312.94;;;17.10;100.00
29417;BME280;28421;51.030;4.006;2023-07-24T02:10:27;100336.94;;;17.13;100.00
29417;BME280;28421;51.030;4.006;2023-07-24T02:12:52;100322.31;;;17.14;100.00
29417;BME280;28421;51.030;4.006;2023-07-24T02:15:18;100314.91;;;17.21;100.00
29417;BME280;28421;51.030;4.006;2023-07-24T02:17:43;100344.47;;;17.29;100.00
29417;BME280;28421;51.030;4.006;2023-07-24T02:20:09;100330.34;;;17.21;100.00
29417;BME280;28421;51.030;4.006;2023-07-24T02:22:35;100334.13;;;17.20;100.00
29417;BME280;28421;51.030;4.006;2023-07-24T02:25:00;100313.84;;;17.22;100.00
29417;BME280;28421;51.030;4.006;2023-07-24T02:27:28;100323.56;;;17.30;100.00
29417;BME280;28421;51.030;4.006;2023-07-24T02:29:57;100295.53;;;16.99;100.00
29417;BME280;28421;51.030;4.006;2023-07-24T02:32:22;100343.03;;;17.08;100.00
29417;BME280;28421;51.030;4.006;2023-07-24T02:34:50;100351.06;;;17.22;100.00
29417;BME280;28421;51.030;4.006;2023-07-24T02:37:15;100325.72;;;17.09;100.00
29417;BME280;28421;51.030;4.006;2023-07-24T02:39:41;100326.28;;;17.11;100.00
29417;BME280;28421;51.030;4.006;2023-07-24T02:42:06;100349.53;;;17.26;100.00
29417;BME280;28421;51.030;4.006;2023-07-24T02:44:34;100299.38;;;16.92;100.00
29417;BME280;28421;51.030;4.006;2023-07-24T02:47:01;100335.19;;;17.00;100.00
29417;BME280;28421;51.030;4.006;2023-07-24T02:49:27;100347.19;;;17.11;100.00
29417;BME280;28421;51.030;4.006;2023-07-24T02:51:52;100305.78;;;16.79;100.00
29417;BME280;28421;51.030;4.006;2023-07-24T02:54:17;100345.09;;;16.95;100.00
29417;BME280;28421;51.030;4.006;2023-07-24T02:56:43;100304.16;;;16.71;100.00
29417;BME280;28421;51.030;4.006;2023-07-24T02:59:08;100377.31;;;17.09;100.00
29417;BME280;28421;51.030;4.006;2023-07-24T03:01:34;100359.06;;;16.98;100.00
29417;BME280;28421;51.030;4.006;2023-07-24T03:04:00;100377.22;;;16.98;100.00
29417;BME280;28421;51.030;4.006;2023-07-24T03:06:26;100377.28;;;16.91;100.00
29417;BME280;28421;51.030;4.006;2023-07-24T03:08:51;100350.00;;;16.43;100.00
29417;BME280;28421;51.030;4.006;2023-07-24T03:11:17;100366.59;;;16.28;100.00
29417;BME280;28421;51.030;4.006;2023-07-24T03:13:43;100369.63;;;16.38;100.00
29417;BME280;28421;51.030;4.006;2023-07-24T03:16:09;100378.34;;;16.22;100.00
29417;BME280;28421;51.030;4.006;2023-07-24T03:18:35;100359.13;;;16.23;100.00
29417;BME280;28421;51.030;4.006;2023-07-24T03:21:00;100361.72;;;16.36;100.00
29417;BME280;28421;51.030;4.006;2023-07-24T03:23:26;100401.34;;;16.62;100.00
29417;BME280;28421;51.030;4.006;2023-07-24T03:25:51;100367.22;;;16.30;100.00
29417;BME280;28421;51.030;4.006;2023-07-24T03:28:17;100355.84;;;16.39;100.00
29417;BME280;28421;51.030;4.006;2023-07-24T03:30:42;100312.50;;;16.08;100.00
29417;BME280;28421;51.030;4.006;2023-07-24T03:33:08;100377.88;;;16.50;100.00
29417;BME280;28421;51.030;4.006;2023-07-24T03:35:33;100324.28;;;16.20;100.00
29417;BME280;28421;51.030;4.006;2023-07-24T03:37:59;100316.59;;;16.17;100.00
29417;BME280;28421;51.030;4.006;2023-07-24T03:40:25;100345.09;;;16.51;100.00
29417;BME280;28421;51.030;4.006;2023-07-24T03:42:50;100356.25;;;16.61;100.00
29417;BME280;28421;51.030;4.006;2023-07-24T03:45:16;100298.34;;;16.49;100.00
29417;BME280;28421;51.030;4.006;2023-07-24T03:47:41;100317.91;;;16.33;100.00
29417;BME280;28421;51.030;4.006;2023-07-24T03:50:07;100308.84;;;16.21;100.00
29417;BME280;28421;51.030;4.006;2023-07-24T03:52:32;100297.16;;;16.20;100.00
29417;BME280;28421;51.030;4.006;2023-07-24T03:54:58;100324.06;;;16.47;100.00
29417;BME280;28421;51.030;4.006;2023-07-24T03:57:23;100320.06;;;16.49;100.00
29417;BME280;28421;51.030;4.006;2023-07-24T03:59:49;100323.88;;;16.41;100.00
29417;BME280;28421;51.030;4.006;2023-07-24T04:02:14;100329.28;;;16.66;100.00
29417;BME280;28421;51.030;4.006;2023-07-24T04:04:40;100315.63;;;16.55;100.00
29417;BME280;28421;51.030;4.006;2023-07-24T04:07:05;100319.38;;;16.54;100.00
29417;BME280;28421;51.030;4.006;2023-07-24T04:09:31;100355.13;;;16.76;100.00
29417;BME280;28421;51.030;4.006;2023-07-24T04:11:56;100291.84;;;16.32;100.00
29417;BME280;28421;51.030;4.006;2023-07-24T04:14:21;100311.91;;;16.49;100.00
29417;BME280;28421;51.030;4.006;2023-07-24T04:16:47;100318.72;;;16.58;100.00
29417;BME280;28421;51.030;4.006;2023-07-24T04:19:13;100291.03;;;16.50;100.00
29417;BME280;28421;51.030;4.006;2023-07-24T04:21:38;100349.22;;;16.79;100.00
29417;BME280;28421;51.030;4.006;2023-07-24T04:24:04;100340.03;;;16.80;100.00
29417;BME280;28421;51.030;4.006;2023-07-24T04:26:29;100356.25;;;16.86;100.00
29417;BME280;28421;51.030;4.006;2023-07-24T04:28:55;100349.75;;;16.87;100.00
29417;BME280;28421;51.030;4.006;2023-07-24T04:31:20;100354.16;;;16.88;100.00
29417;BME280;28421;51.030;4.006;2023-07-24T04:33:46;100344.31;;;16.87;100.00
29417;BME280;28421;51.030;4.006;2023-07-24T04:36:12;100293.63;;;16.63;100.00
29417;BME280;28421;51.030;4.006;2023-07-24T04:38:37;100321.25;;;16.78;100.00
29417;BME280;28421;51.030;4.006;2023-07-24T04:41:02;100339.56;;;16.83;100.00
29417;BME280;28421;51.030;4.006;2023-07-24T04:43:31;100346.22;;;16.87;100.00
29417;BME280;28421;51.030;4.006;2023-07-24T04:45:56;100345.81;;;16.83;100.00
29417;BME280;28421;51.030;4.006;2023-07-24T04:48:22;100359.66;;;16.82;100.00
29417;BME280;28421;51.030;4.006;2023-07-24T04:50:53;100364.94;;;16.95;100.00
29417;BME280;28421;51.030;4.006;2023-07-24T04:53:20;100374.06;;;17.01;100.00
29417;BME280;28421;51.030;4.006;2023-07-24T04:55:46;100333.56;;;16.81;100.00
29417;BME280;28421;51.030;4.006;2023-07-24T04:58:11;100368.25;;;16.97;100.00
29417;BME280;28421;51.030;4.006;2023-07-24T05:00:36;100374.06;;;17.01;100.00
29417;BME280;28421;51.030;4.006;2023-07-24T05:03:02;100379.84;;;16.86;100.00
29417;BME280;28421;51.030;4.006;2023-07-24T05:05:27;100382.28;;;16.94;100.00
29417;BME280;28421;51.030;4.006;2023-07-24T05:07:53;100323.44;;;16.45;100.00
29417;BME280;28421;51.030;4.006;2023-07-24T05:10:18;100376.47;;;16.90;100.00
29417;BME280;28421;51.030;4.006;2023-07-24T05:12:44;100335.31;;;16.69;100.00
29417;BME280;28421;51.030;4.006;2023-07-24T05:15:09;100325.16;;;16.64;100.00
29417;BME280;28421;51.030;4.006;2023-07-24T05:17:35;100369.00;;;16.86;100.00
29417;BME280;28421;51.030;4.006;2023-07-24T05:20:00;100318.84;;;16.45;100.00
29417;BME280;28421;51.030;4.006;2023-07-24T05:22:26;100332.06;;;16.60;100.00
29417;BME280;28421;51.030;4.006;2023-07-24T05:24:51;100368.84;;;16.99;100.00
29417;BME280;28421;51.030;4.006;2023-07-24T05:27:16;100362.97;;;17.02;100.00
29417;BME280;28421;51.030;4.006;2023-07-24T05:29:42;100372.28;;;17.13;100.00
29417;BME280;28421;51.030;4.006;2023-07-24T05:32:07;100316.88;;;16.77;100.00
29417;BME280;28421;51.030;4.006;2023-07-24T05:34:33;100392.63;;;17.22;100.00
29417;BME280;28421;51.030;4.006;2023-07-24T05:36:58;100356.19;;;16.93;100.00
29417;BME280;28421;51.030;4.006;2023-07-24T05:39:24;100327.66;;;17.02;100.00
29417;BME280;28421;51.030;4.006;2023-07-24T05:41:49;100386.09;;;17.42;100.00
29417;BME280;28421;51.030;4.006;2023-07-24T05:44:15;100388.63;;;17.43;100.00
29417;BME280;28421;51.030;4.006;2023-07-24T05:46:40;100384.97;;;17.49;100.00
29417;BME280;28421;51.030;4.006;2023-07-24T05:49:05;100311.38;;;17.02;100.00
29417;BME280;28421;51.030;4.006;2023-07-24T05:51:31;100380.47;;;17.43;100.00
29417;BME280;28421;51.030;4.006;2023-07-24T05:53:56;100337.16;;;17.11;100.00
29417;BME280;28421;51.030;4.006;2023-07-24T05:56:22;100373.31;;;17.30;100.00
29417;BME280;28421;51.030;4.006;2023-07-24T05:58:47;100338.75;;;17.19;100.00
29417;BME280;28421;51.030;4.006;2023-07-24T06:01:13;100378.38;;;17.57;100.00
29417;BME280;28421;51.030;4.006;2023-07-24T06:03:38;100380.63;;;17.78;100.00
29417;BME280;28421;51.030;4.006;2023-07-24T06:06:06;100394.56;;;18.00;100.00
29417;BME280;28421;51.030;4.006;2023-07-24T06:08:32;100387.25;;;18.12;100.00
29417;BME280;28421;51.030;4.006;2023-07-24T06:10:58;100361.25;;;18.28;100.00
29417;BME280;28421;51.030;4.006;2023-07-24T06:13:23;100395.03;;;18.62;98.43
29417;BME280;28421;51.030;4.006;2023-07-24T06:15:50;100357.72;;;18.39;97.10
29417;BME280;28421;51.030;4.006;2023-07-24T06:18:15;100345.53;;;18.42;95.82
29417;BME280;28421;51.030;4.006;2023-07-24T06:20:41;100311.44;;;18.28;95.34
29417;BME280;28421;51.030;4.006;2023-07-24T06:23:06;100385.31;;;18.55;95.33
29417;BME280;28421;51.030;4.006;2023-07-24T06:25:32;100363.97;;;18.40;95.89
29417;BME280;28421;51.030;4.006;2023-07-24T06:27:58;100341.34;;;18.16;96.74
29417;BME280;28421;51.030;4.006;2023-07-24T06:30:23;100351.03;;;18.12;96.88
29417;BME280;28421;51.030;4.006;2023-07-24T06:32:49;100317.72;;;17.75;97.65
29417;BME280;28421;51.030;4.006;2023-07-24T06:35:14;100380.75;;;18.13;97.26
29417;BME280;28421;51.030;4.006;2023-07-24T06:37:40;100405.50;;;18.35;97.39
29417;BME280;28421;51.030;4.006;2023-07-24T06:40:08;100364.16;;;18.03;97.19
29417;BME280;28421;51.030;4.006;2023-07-24T06:42:34;100386.91;;;18.09;98.21
29417;BME280;28421;51.030;4.006;2023-07-24T06:44:59;100370.28;;;17.69;98.78
29417;BME280;28421;51.030;4.006;2023-07-24T06:47:25;100411.13;;;18.10;100.00
29417;BME280;28421;51.030;4.006;2023-07-24T06:49:51;100390.41;;;17.98;99.01
29417;BME280;28421;51.030;4.006;2023-07-24T06:52:17;100368.97;;;17.89;100.00
29417;BME280;28421;51.030;4.006;2023-07-24T06:54:42;100398.81;;;18.08;100.00
29417;BME280;28421;51.030;4.006;2023-07-24T06:57:08;100404.41;;;18.13;99.52
29417;BME280;28421;51.030;4.006;2023-07-24T06:59:33;100361.63;;;17.90;99.71
29417;BME280;28421;51.030;4.006;2023-07-24T07:01:59;100396.72;;;18.10;99.74
29417;BME280;28421;51.030;4.006;2023-07-24T07:04:24;100325.97;;;17.68;99.64
29417;BME280;28421;51.030;4.006;2023-07-24T07:06:50;100367.81;;;17.97;99.86
29417;BME280;28421;51.030;4.006;2023-07-24T07:09:15;100375.91;;;18.16;99.95
29417;BME280;28421;51.030;4.006;2023-07-24T07:11:41;100342.63;;;18.02;100.00
29417;BME280;28421;51.030;4.006;2023-07-24T07:14:08;100378.31;;;18.59;99.26
29417;BME280;28421;51.030;4.006;2023-07-24T07:16:34;100305.97;;;18.28;98.79
29417;BME280;28421;51.030;4.006;2023-07-24T07:19:00;100370.06;;;18.89;97.27
29417;BME280;28421;51.030;4.006;2023-07-24T07:21:25;100350.59;;;18.62;95.61
29417;BME280;28421;51.030;4.006;2023-07-24T07:23:51;100372.88;;;18.59;95.97
29417;BME280;28421;51.030;4.006;2023-07-24T07:26:16;100373.13;;;19.04;96.26
29417;BME280;28421;51.030;4.006;2023-07-24T07:28:42;100356.78;;;19.04;94.42
29417;BME280;28421;51.030;4.006;2023-07-24T07:31:11;100375.47;;;19.12;94.23
29417;BME280;28421;51.030;4.006;2023-07-24T07:33:36;100352.63;;;18.78;94.21
29417;BME280;28421;51.030;4.006;2023-07-24T07:36:01;100302.91;;;18.83;94.03
29417;BME280;28421;51.030;4.006;2023-07-24T07:38:29;100319.25;;;18.83;93.96
29417;BME280;28421;51.030;4.006;2023-07-24T07:40:54;100375.31;;;19.19;93.48
29417;BME280;28421;51.030;4.006;2023-07-24T07:43:20;100365.66;;;19.00;91.67
29417;BME280;28421;51.030;4.006;2023-07-24T07:45:46;100323.50;;;18.91;93.01
29417;BME280;28421;51.030;4.006;2023-07-24T07:48:12;100328.47;;;18.94;89.71
29417;BME280;28421;51.030;4.006;2023-07-24T07:50:37;100317.84;;;18.80;91.56
29417;BME280;28421;51.030;4.006;2023-07-24T07:53:02;100351.13;;;18.71;89.03
29417;BME280;28421;51.030;4.006;2023-07-24T07:55:28;100355.25;;;18.85;91.36
29417;BME280;28421;51.030;4.006;2023-07-24T07:57:53;100353.25;;;18.80;90.22
29417;BME280;28421;51.030;4.006;2023-07-24T08:00:19;100340.69;;;19.31;88.91
29417;BME280;28421;51.030;4.006;2023-07-24T08:02:44;100364.91;;;19.85;87.39
29417;BME280;28421;51.030;4.006;2023-07-24T08:05:10;100307.28;;;19.53;86.03
29417;BME280;28421;51.030;4.006;2023-07-24T08:07:36;100334.56;;;19.81;85.48
29417;BME280;28421;51.030;4.006;2023-07-24T08:10:02;100356.28;;;20.22;85.00
29417;BME280;28421;51.030;4.006;2023-07-24T08:12:28;100369.06;;;19.88;85.27
29417;BME280;28421;51.030;4.006;2023-07-24T08:14:55;100352.56;;;19.25;83.07
29417;BME280;28421;51.030;4.006;2023-07-24T08:17:21;100360.53;;;19.55;84.04
29417;BME280;28421;51.030;4.006;2023-07-24T08:19:46;100321.63;;;18.44;84.79
29417;BME280;28421;51.030;4.006;2023-07-24T08:22:12;100340.66;;;18.56;85.72
29417;BME280;28421;51.030;4.006;2023-07-24T08:24:37;100293.06;;;18.11;87.06
29417;BME280;28421;51.030;4.006;2023-07-24T08:27:03;100311.66;;;18.61;87.43
29417;BME280;28421;51.030;4.006;2023-07-24T08:29:28;100357.13;;;18.96;85.68
29417;BME280;28421;51.030;4.006;2023-07-24T08:31:54;100315.25;;;18.50;85.40
29417;BME280;28421;51.030;4.006;2023-07-24T08:34:19;100312.16;;;18.70;86.30
29417;BME280;28421;51.030;4.006;2023-07-24T08:36:45;100310.00;;;18.37;86.88
29417;BME280;28421;51.030;4.006;2023-07-24T08:39:10;100305.16;;;18.51;88.35
29417;BME280;28421;51.030;4.006;2023-07-24T08:41:37;100281.25;;;18.53;87.73
29417;BME280;28421;51.030;4.006;2023-07-24T08:44:07;100286.34;;;18.73;87.86
29417;BME280;28421;51.030;4.006;2023-07-24T08:46:36;100287.03;;;18.92;88.45
29417;BME280;28421;51.030;4.006;2023-07-24T08:49:03;100320.50;;;19.44;88.33
29417;BME280;28421;51.030;4.006;2023-07-24T08:51:29;100262.41;;;19.15;86.98
29417;BME280;28421;51.030;4.006;2023-07-24T08:53:55;100297.47;;;19.52;84.13
29417;BME280;28421;51.030;4.006;2023-07-24T08:56:21;100261.91;;;18.90;82.77
29417;BME280;28421;51.030;4.006;2023-07-24T08:58:47;100290.66;;;19.09;84.06
29417;BME280;28421;51.030;4.006;2023-07-24T09:01:12;100276.63;;;19.17;84.30
29417;BME280;28421;51.030;4.006;2023-07-24T09:03:37;100275.22;;;19.43;83.69
29417;BME280;28421;51.030;4.006;2023-07-24T09:06:03;100304.97;;;19.90;83.39
29417;BME280;28421;51.030;4.006;2023-07-24T09:08:32;100310.28;;;19.97;80.60
29417;BME280;28421;51.030;4.006;2023-07-24T09:10:59;100251.81;;;19.30;78.83
29417;BME280;28421;51.030;4.006;2023-07-24T09:13:25;100296.38;;;19.81;79.56
29417;BME280;28421;51.030;4.006;2023-07-24T09:15:51;100308.44;;;19.85;80.99
29417;BME280;28421;51.030;4.006;2023-07-24T09:18:16;100278.97;;;19.54;81.15
29417;BME280;28421;51.030;4.006;2023-07-24T09:20:44;100259.06;;;19.53;80.59
29417;BME280;28421;51.030;4.006;2023-07-24T09:23:11;100300.78;;;20.16;81.41
29417;BME280;28421;51.030;4.006;2023-07-24T09:25:38;100278.75;;;20.40;80.49
29417;BME280;28421;51.030;4.006;2023-07-24T09:28:12;100264.59;;;20.43;78.14
29417;BME280;28421;51.030;4.006;2023-07-24T09:30:39;100289.78;;;20.83;79.75
29417;BME280;28421;51.030;4.006;2023-07-24T09:33:04;100264.03;;;20.41;77.54
29417;BME280;28421;51.030;4.006;2023-07-24T09:35:30;100281.13;;;20.70;78.98
29417;BME280;28421;51.030;4.006;2023-07-24T09:38:07;100257.72;;;20.40;78.79
29417;BME280;28421;51.030;4.006;2023-07-24T09:40:41;100238.94;;;20.44;76.49
29417;BME280;28421;51.030;4.006;2023-07-24T09:45:43;100240.09;;;19.75;75.16
29417;BME280;28421;51.030;4.006;2023-07-24T09:48:09;100269.91;;;19.99;75.12
29417;BME280;28421;51.030;4.006;2023-07-24T09:50:38;100263.34;;;20.11;76.12
29417;BME280;28421;51.030;4.006;2023-07-24T09:53:05;100271.06;;;20.36;77.31
29417;BME280;28421;51.030;4.006;2023-07-24T09:55:36;100291.03;;;20.03;75.12
29417;BME280;28421;51.030;4.006;2023-07-24T09:58:03;100282.75;;;19.98;76.02
29417;BME280;28421;51.030;4.006;2023-07-24T10:00:31;100251.22;;;20.41;75.41
29417;BME280;28421;51.030;4.006;2023-07-24T10:02:56;100318.03;;;20.94;75.87
29417;BME280;28421;51.030;4.006;2023-07-24T10:05:22;100279.03;;;20.99;73.46
29417;BME280;28421;51.030;4.006;2023-07-24T10:07:48;100303.44;;;20.83;75.15
29417;BME280;28421;51.030;4.006;2023-07-24T10:10:15;100296.38;;;20.66;74.57
29417;BME280;28421;51.030;4.006;2023-07-24T10:12:40;100343.78;;;20.59;75.21
29417;BME280;28421;51.030;4.006;2023-07-24T10:15:07;100300.78;;;20.33;75.48
29417;BME280;28421;51.030;4.006;2023-07-24T10:17:37;100338.63;;;20.80;75.45
29417;BME280;28421;51.030;4.006;2023-07-24T10:20:07;100336.97;;;20.79;74.14
29417;BME280;28421;51.030;4.006;2023-07-24T10:22:34;100306.81;;;20.35;72.46
29417;BME280;28421;51.030;4.006;2023-07-24T10:24:59;100314.94;;;20.13;72.35
29417;BME280;28421;51.030;4.006;2023-07-24T10:27:25;100321.69;;;20.10;73.77
29417;BME280;28421;51.030;4.006;2023-07-24T10:30:04;100321.53;;;20.00;76.27
29417;BME280;28421;51.030;4.006;2023-07-24T10:32:30;100337.56;;;20.47;75.13
29417;BME280;28421;51.030;4.006;2023-07-24T10:35:06;100343.16;;;20.91;73.76
29417;BME280;28421;51.030;4.006;2023-07-24T10:37:35;100295.19;;;20.78;73.00
29417;BME280;28421;51.030;4.006;2023-07-24T10:40:02;100326.69;;;21.30;71.04
29417;BME280;28421;51.030;4.006;2023-07-24T10:42:28;100324.47;;;20.83;70.95
29417;BME280;28421;51.030;4.006;2023-07-24T10:45:07;100334.00;;;21.02;69.56
29417;BME280;28421;51.030;4.006;2023-07-24T10:47:33;100336.44;;;21.43;69.20
29417;BME280;28421;51.030;4.006;2023-07-24T10:49:59;100303.44;;;21.49;68.57
29417;BME280;28421;51.030;4.006;2023-07-24T10:52:30;100302.59;;;21.76;66.12
29417;BME280;28421;51.030;4.006;2023-07-24T10:54:56;100343.72;;;21.59;65.42
29417;BME280;28421;51.030;4.006;2023-07-24T10:57:26;100363.38;;;22.10;67.48
29417;BME280;28421;51.030;4.006;2023-07-24T10:59:52;100345.25;;;22.31;66.98
29417;BME280;28421;51.030;4.006;2023-07-24T11:02:17;100331.78;;;21.97;63.01
29417;BME280;28421;51.030;4.006;2023-07-24T11:04:43;100309.16;;;22.07;65.17
29417;BME280;28421;51.030;4.006;2023-07-24T11:07:09;100319.66;;;21.88;63.42
29417;BME280;28421;51.030;4.006;2023-07-24T11:09:39;100359.19;;;22.29;65.23
29417;BME280;28421;51.030;4.006;2023-07-24T11:12:13;100338.09;;;21.44;61.33
29417;BME280;28421;51.030;4.006;2023-07-24T11:14:52;100327.59;;;21.35;64.81
29417;BME280;28421;51.030;4.006;2023-07-24T11:17:21;100340.78;;;22.20;63.81
29417;BME280;28421;51.030;4.006;2023-07-24T11:19:46;100294.66;;;21.74;63.79
29417;BME280;28421;51.030;4.006;2023-07-24T11:22:12;100341.47;;;22.10;64.82
29417;BME280;28421;51.030;4.006;2023-07-24T11:24:47;100345.66;;;22.13;62.77
29417;BME280;28421;51.030;4.006;2023-07-24T11:27:14;100335.72;;;22.39;64.28
29417;BME280;28421;51.030;4.006;2023-07-24T11:29:40;100321.06;;;22.60;61.42
29417;BME280;28421;51.030;4.006;2023-07-24T11:32:06;100324.78;;;22.86;59.53
29417;BME280;28421;51.030;4.006;2023-07-24T11:34:32;100331.16;;;22.92;57.20
29417;BME280;28421;51.030;4.006;2023-07-24T11:36:59;100305.72;;;22.64;56.26
29417;BME280;28421;51.030;4.006;2023-07-24T11:39:25;100339.97;;;22.99;58.99
29417;BME280;28421;51.030;4.006;2023-07-24T11:41:50;100338.75;;;23.42;60.38
29417;BME280;28421;51.030;4.006;2023-07-24T11:44:24;100306.91;;;22.73;55.71
29417;BME280;28421;51.030;4.006;2023-07-24T11:46:50;100317.81;;;23.11;58.06
29417;BME280;28421;51.030;4.006;2023-07-24T11:49:15;100320.63;;;22.73;58.15
29417;BME280;28421;51.030;4.006;2023-07-24T11:51:40;100335.28;;;22.94;54.44
29417;BME280;28421;51.030;4.006;2023-07-24T11:54:07;100309.28;;;23.02;55.62
29417;BME280;28421;51.030;4.006;2023-07-24T11:56:32;100359.66;;;23.64;58.15
29417;BME280;28421;51.030;4.006;2023-07-24T11:59:09;100372.72;;;22.83;55.77
29417;BME280;28421;51.030;4.006;2023-07-24T12:01:34;100336.81;;;22.80;59.24
29417;BME280;28421;51.030;4.006;2023-07-24T12:04:00;100335.66;;;23.18;55.93
29417;BME280;28421;51.030;4.006;2023-07-24T12:06:25;100349.38;;;23.18;55.01
29417;BME280;28421;51.030;4.006;2023-07-24T12:08:51;100353.16;;;23.90;56.56
29417;BME280;28421;51.030;4.006;2023-07-24T12:11:17;100362.41;;;23.64;56.71
29417;BME280;28421;51.030;4.006;2023-07-24T12:13:46;100330.38;;;24.00;53.55
29417;BME280;28421;51.030;4.006;2023-07-24T12:16:11;100336.41;;;24.33;55.38
29417;BME280;28421;51.030;4.006;2023-07-24T12:18:37;100351.81;;;24.03;54.49
29417;BME280;28421;51.030;4.006;2023-07-24T12:21:02;100307.31;;;23.80;55.17
29417;BME280;28421;51.030;4.006;2023-07-24T12:23:28;100355.22;;;23.42;54.50
29417;BME280;28421;51.030;4.006;2023-07-24T12:25:53;100327.34;;;22.98;55.23
29417;BME280;28421;51.030;4.006;2023-07-24T12:28:18;100310.81;;;22.88;55.70
29417;BME280;28421;51.030;4.006;2023-07-24T12:30:44;100328.69;;;22.90;56.78
29417;BME280;28421;51.030;4.006;2023-07-24T12:33:09;100323.16;;;22.85;56.77
29417;BME280;28421;51.030;4.006;2023-07-24T12:35:35;100349.38;;;23.18;58.74
29417;BME280;28421;51.030;4.006;2023-07-24T12:38:00;100301.59;;;23.04;57.56
29417;BME280;28421;51.030;4.006;2023-07-24T12:40:26;100335.75;;;23.44;56.37
29417;BME280;28421;51.030;4.006;2023-07-24T12:42:51;100308.41;;;23.01;58.15